sensor_id;sensor_type;location;lat;lon;timestamp;pressure;altitude;pressure_sealevel;temperature;humidity
20971;BME280;10644;48.834;10.088;2024-03-02T00:00:06;95541.63;;;11.43;65.25
20971;BME280;10644;48.834;10.088;2024-03-02T00:02:42;95542.34;;;11.45;65.52
20971;BME280;10644;48.834;10.088;2024-03-02T00:05:11;95548.16;;;11.58;65.30
20971;BME280;10644;48.834;10.088;2024-03-02T00:07:37;95546.44;;;11.48;65.42
20971;BME280;10644;48.834;10.088;2024-03-02T00:10:08;95544.09;;;11.56;64.77
20971;BME280;10644;48.834;10.088;2024-03-02T00:12:35;95544.31;;;11.53;65.30
20971;BME280;10644;48.834;10.088;2024-03-02T00:15:01;95538.59;;;11.49;65.50
20971;BME280;10644;48.834;10.088;2024-03-02T00:17:28;95537.34;;;11.44;65.68
20971;BME280;10644;48.834;10.088;2024-03-02T00:19:54;95534.19;;;11.40;65.65
20971;BME280;10644;48.834;10.088;2024-03-02T00:22:20;95540.13;;;11.41;66.14
20971;BME280;10644;48.834;10.088;2024-03-02T00:24:45;95549.53;;;11.18;66.67
20971;BME280;10644;48.834;10.088;2024-03-02T00:27:12;95542.75;;;10.95;67.66
20971;BME280;10644;48.834;10.088;2024-03-02T00:29:40;95545.88;;;10.88;68.12
20971;BME280;10644;48.834;10.088;2024-03-02T00:32:12;95540.41;;;11.03;66.92
20971;BME280;10644;48.834;10.088;2024-03-02T00:34:39;95541.53;;;10.88;67.58
20971;BME280;10644;48.834;10.088;2024-03-02T00:37:05;95539.03;;;11.10;66.82
20971;BME280;10644;48.834;10.088;2024-03-02T00:39:30;95529.81;;;11.08;67.09
20971;BME280;10644;48.834;10.088;2024-03-02T00:41:55;95538.56;;;11.16;67.21
20971;BME280;10644;48.834;10.088;2024-03-02T00:44:23;95538.78;;;11.02;66.99
20971;BME280;10644;48.834;10.088;2024-03-02T00:46:50;95537.41;;;11.20;66.79
20971;BME280;10644;48.834;10.088;2024-03-02T00:49:21;95535.44;;;11.35;66.08
20971;BME280;10644;48.834;10.088;2024-03-02T00:51:50;95541.84;;;11.07;67.09
20971;BME280;10644;48.834;10.088;2024-03-02T00:54:21;95547.84;;;10.84;67.64
20971;BME280;10644;48.834;10.088;2024-03-02T00:56:47;95538.16;;;10.77;68.25
20971;BME280;10644;48.834;10.088;2024-03-02T00:59:13;95541.56;;;10.99;67.65
20971;BME280;10644;48.834;10.088;2024-03-02T01:01:38;95544.91;;;11.23;66.71
20971;BME280;10644;48.834;10.088;2024-03-02T01:04:03;95539.53;;;11.37;66.20
20971;BME280;10644;48.834;10.088;2024-03-02T01:06:32;95550.94;;;11.33;66.12
20971;BME280;10644;48.834;10.088;2024-03-02T01:08:57;95548.84;;;11.49;65.81
20971;BME280;10644;48.834;10.088;2024-03-02T01:11:22;95550.72;;;11.47;65.60
20971;BME280;10644;48.834;10.088;2024-03-02T01:13:48;95551.41;;;11.49;65.72
20971;BME280;10644;48.834;10.088;2024-03-02T01:16:13;95550.38;;;11.52;65.42
20971;BME280;10644;48.834;10.088;2024-03-02T01:18:40;95553.91;;;11.62;65.03
20971;BME280;10644;48.834;10.088;2024-03-02T01:21:06;95559.88;;;11.73;65.24
20971;BME280;10644;48.834;10.088;2024-03-02T01:23:33;95562.66;;;11.81;64.74
20971;BME280;10644;48.834;10.088;2024-03-02T01:25:59;95560.09;;;11.81;64.38
20971;BME280;10644;48.834;10.088;2024-03-02T01:28:25;95574.78;;;11.90;64.19
20971;BME280;10644;48.834;10.088;2024-03-02T01:30:50;95574.06;;;11.77;63.89
20971;BME280;10644;48.834;10.088;2024-03-02T01:33:17;95571.97;;;11.71;64.20
20971;BME280;10644;48.834;10.088;2024-03-02T01:35:45;95565.22;;;11.81;63.89
20971;BME280;10644;48.834;10.088;2024-03-02T01:38:11;95560.44;;;11.88;63.36
20971;BME280;10644;48.834;10.088;2024-03-02T01:40:37;95561.50;;;11.85;62.93
20971;BME280;10644;48.834;10.088;2024-03-02T01:43:07;95557.41;;;11.83;63.04
20971;BME280;10644;48.834;10.088;2024-03-02T01:45:33;95560.53;;;11.86;63.44
20971;BME280;10644;48.834;10.088;2024-03-02T01:48:04;95557.72;;;11.89;63.11
20971;BME280;10644;48.834;10.088;2024-03-02T01:50:32;95557.59;;;11.36;64.12
20971;BME280;10644;48.834;10.088;2024-03-02T01:52:59;95559.91;;;11.28;64.75
20971;BME280;10644;48.834;10.088;2024-03-02T01:55:25;95554.91;;;11.37;64.33
20971;BME280;10644;48.834;10.088;2024-03-02T01:57:51;95552.34;;;11.37;64.25
20971;BME280;10644;48.834;10.088;2024-03-02T02:00:17;95550.63;;;11.38;64.70
20971;BME280;10644;48.834;10.088;2024-03-02T02:02:43;95546.75;;;11.43;64.81
20971;BME280;10644;48.834;10.088;2024-03-02T02:05:09;95546.75;;;11.54;64.43
20971;BME280;10644;48.834;10.088;2024-03-02T02:07:36;95532.09;;;11.56;63.88
20971;BME280;10644;48.834;10.088;2024-03-02T02:10:02;95535.28;;;11.60;64.06
20971;BME280;10644;48.834;10.088;2024-03-02T02:12:28;95532.13;;;11.67;63.87
20971;BME280;10644;48.834;10.088;2024-03-02T02:14:53;95526.25;;;11.76;63.72
20971;BME280;10644;48.834;10.088;2024-03-02T02:17:18;95529.63;;;11.22;64.82
20971;BME280;10644;48.834;10.088;2024-03-02T02:19:44;95524.03;;;11.28;64.82
20971;BME280;10644;48.834;10.088;2024-03-02T02:22:12;95538.59;;;11.38;64.85
20971;BME280;10644;48.834;10.088;2024-03-02T02:24:41;95534.66;;;11.34;64.65
20971;BME280;10644;48.834;10.088;2024-03-02T02:27:07;95532.66;;;11.49;64.59
20971;BME280;10644;48.834;10.088;2024-03-02T02:29:33;95526.97;;;11.45;64.40
20971;BME280;10644;48.834;10.088;2024-03-02T02:32:01;95532.88;;;11.46;64.53
20971;BME280;10644;48.834;10.088;2024-03-02T02:34:26;95526.25;;;11.32;64.82
20971;BME280;10644;48.834;10.088;2024-03-02T02:36:52;95524.38;;;11.12;65.31
20971;BME280;10644;48.834;10.088;2024-03-02T02:39:19;95524.63;;;11.31;64.90
20971;BME280;10644;48.834;10.088;2024-03-02T02:41:48;95528.59;;;11.46;64.59
20971;BME280;10644;48.834;10.088;2024-03-02T02:44:13;95516.81;;;11.55;64.29
20971;BME280;10644;48.834;10.088;2024-03-02T02:46:40;95516.72;;;11.34;64.79
20971;BME280;10644;48.834;10.088;2024-03-02T02:49:05;95518.56;;;11.32;64.72
20971;BME280;10644;48.834;10.088;2024-03-02T02:51:31;95519.03;;;11.37;64.48
20971;BME280;10644;48.834;10.088;2024-03-02T02:53:56;95516.72;;;11.34;64.54
20971;BME280;10644;48.834;10.088;2024-03-02T02:56:22;95519.03;;;11.37;64.94
20971;BME280;10644;48.834;10.088;2024-03-02T02:58:47;95511.59;;;11.45;64.31
20971;BME280;10644;48.834;10.088;2024-03-02T03:01:13;95523.34;;;11.59;63.97
20971;BME280;10644;48.834;10.088;2024-03-02T03:03:42;95516.94;;;11.64;63.91
20971;BME280;10644;48.834;10.088;2024-03-02T03:06:07;95504.78;;;11.55;63.69
20971;BME280;10644;48.834;10.088;2024-03-02T03:08:32;95503.44;;;11.62;64.14
20971;BME280;10644;48.834;10.088;2024-03-02T03:10:58;95501.91;;;11.71;63.83
20971;BME280;10644;48.834;10.088;2024-03-02T03:13:23;95505.75;;;11.76;63.61
20971;BME280;10644;48.834;10.088;2024-03-02T03:15:49;95510.88;;;11.76;63.61
20971;BME280;10644;48.834;10.088;2024-03-02T03:18:14;95511.34;;;11.59;63.58
20971;BME280;10644;48.834;10.088;2024-03-02T03:20:39;95505.50;;;11.57;64.08
20971;BME280;10644;48.834;10.088;2024-03-02T03:23:04;95511.91;;;11.41;64.43
20971;BME280;10644;48.834;10.088;2024-03-02T03:25:30;95516.47;;;11.37;64.48
20971;BME280;10644;48.834;10.088;2024-03-02T03:27:58;95508.09;;;11.46;63.69
20971;BME280;10644;48.834;10.088;2024-03-02T03:30:23;95513.94;;;11.59;63.40
20971;BME280;10644;48.834;10.088;2024-03-02T03:32:49;95513.44;;;11.54;63.59
20971;BME280;10644;48.834;10.088;2024-03-02T03:35:14;95521.13;;;11.43;63.86
20971;BME280;10644;48.834;10.088;2024-03-02T03:37:41;95514.59;;;11.50;63.71
20971;BME280;10644;48.834;10.088;2024-03-02T03:40:07;95518.78;;;11.18;65.00
20971;BME280;10644;48.834;10.088;2024-03-02T03:42:35;95519.59;;;11.19;64.95
20971;BME280;10644;48.834;10.088;2024-03-02T03:45:03;95509.22;;;11.20;64.54
20971;BME280;10644;48.834;10.088;2024-03-02T03:47:31;95514.38;;;11.31;64.43
20971;BME280;10644;48.834;10.088;2024-03-02T03:49:56;95512.25;;;11.25;64.16
20971;BME280;10644;48.834;10.088;2024-03-02T03:52:24;95519.94;;;11.03;64.74
20971;BME280;10644;48.834;10.088;2024-03-02T03:54:49;95525.50;;;10.97;65.83
20971;BME280;10644;48.834;10.088;2024-03-02T03:57:17;95533.88;;;10.99;65.39
20971;BME280;10644;48.834;10.088;2024-03-02T03:59:43;95527.63;;;11.14;64.86
20971;BME280;10644;48.834;10.088;2024-03-02T04:02:09;95517.63;;;11.11;64.92
20971;BME280;10644;48.834;10.088;2024-03-02T04:04:36;95526.69;;;11.04;65.64
20971;BME280;10644;48.834;10.088;2024-03-02T04:07:02;95524.84;;;11.06;64.88
20971;BME280;10644;48.834;10.088;2024-03-02T04:09:27;95536.56;;;10.87;65.49
20971;BME280;10644;48.834;10.088;2024-03-02T04:11:52;95535.75;;;10.97;65.41
20971;BME280;10644;48.834;10.088;2024-03-02T04:14:18;95539.50;;;11.15;65.04
20971;BME280;10644;48.834;10.088;2024-03-02T04:16:46;95539.06;;;11.32;64.31
20971;BME280;10644;48.834;10.088;2024-03-02T04:19:12;95534.41;;;11.37;63.89
20971;BME280;10644;48.834;10.088;2024-03-02T04:21:37;95542.81;;;11.39;63.91
20971;BME280;10644;48.834;10.088;2024-03-02T04:24:03;95539.69;;;10.90;65.16
20971;BME280;10644;48.834;10.088;2024-03-02T04:26:28;95540.19;;;10.37;67.18
20971;BME280;10644;48.834;10.088;2024-03-02T04:28:54;95535.31;;;10.11;68.33
20971;BME280;10644;48.834;10.088;2024-03-02T04:31:19;95534.41;;;9.99;68.35
20971;BME280;10644;48.834;10.088;2024-03-02T04:33:45;95539.84;;;9.95;69.01
20971;BME280;10644;48.834;10.088;2024-03-02T04:36:10;95535.66;;;10.06;68.31
20971;BME280;10644;48.834;10.088;2024-03-02T04:38:38;95533.47;;;10.13;68.06
20971;BME280;10644;48.834;10.088;2024-03-02T04:41:04;95539.75;;;10.32;67.62
20971;BME280;10644;48.834;10.088;2024-03-02T04:43:31;95542.31;;;10.43;67.22
20971;BME280;10644;48.834;10.088;2024-03-02T04:45:57;95543.00;;;10.34;67.19
20971;BME280;10644;48.834;10.088;2024-03-02T04:48:23;95545.56;;;9.98;68.87
20971;BME280;10644;48.834;10.088;2024-03-02T04:50:48;95549.53;;;9.66;69.88
20971;BME280;10644;48.834;10.088;2024-03-02T04:53:16;95547.56;;;9.82;69.70
20971;BME280;10644;48.834;10.088;2024-03-02T04:55:41;95547.06;;;10.13;68.70
20971;BME280;10644;48.834;10.088;2024-03-02T04:58:07;95548.72;;;10.38;68.06
20971;BME280;10644;48.834;10.088;2024-03-02T05:00:33;95548.97;;;10.46;67.49
20971;BME280;10644;48.834;10.088;2024-03-02T05:02:58;95551.84;;;10.65;67.03
20971;BME280;10644;48.834;10.088;2024-03-02T05:05:26;95552.25;;;10.82;65.90
20971;BME280;10644;48.834;10.088;2024-03-02T05:07:51;95547.88;;;10.95;65.67
20971;BME280;10644;48.834;10.088;2024-03-02T05:10:19;95550.94;;;11.11;65.20
20971;BME280;10644;48.834;10.088;2024-03-02T05:12:45;95550.59;;;11.16;64.91
20971;BME280;10644;48.834;10.088;2024-03-02T05:15:11;95552.06;;;10.96;64.90
20971;BME280;10644;48.834;10.088;2024-03-02T05:17:37;95561.31;;;10.75;65.12
20971;BME280;10644;48.834;10.088;2024-03-02T05:20:04;95554.03;;;10.58;66.14
20971;BME280;10644;48.834;10.088;2024-03-02T05:22:29;95555.00;;;10.68;66.36
20971;BME280;10644;48.834;10.088;2024-03-02T05:24:54;95545.19;;;10.86;65.83
20971;BME280;10644;48.834;10.088;2024-03-02T05:27:24;95548.31;;;10.55;66.10
20971;BME280;10644;48.834;10.088;2024-03-02T05:29:49;95540.09;;;10.39;66.75
20971;BME280;10644;48.834;10.088;2024-03-02T05:32:14;95549.69;;;10.24;67.23
20971;BME280;10644;48.834;10.088;2024-03-02T05:34:40;95546.25;;;10.36;66.67
20971;BME280;10644;48.834;10.088;2024-03-02T05:37:05;95545.50;;;10.23;67.45
20971;BME280;10644;48.834;10.088;2024-03-02T05:39:30;95554.97;;;10.34;66.85
20971;BME280;10644;48.834;10.088;2024-03-02T05:41:56;95547.44;;;10.43;66.20
20971;BME280;10644;48.834;10.088;2024-03-02T05:44:21;95551.16;;;10.39;66.66
20971;BME280;10644;48.834;10.088;2024-03-02T05:46:47;95549.31;;;10.41;66.40
20971;BME280;10644;48.834;10.088;2024-03-02T05:49:13;95558.41;;;10.45;66.40
20971;BME280;10644;48.834;10.088;2024-03-02T05:51:38;95554.09;;;10.46;66.12
20971;BME280;10644;48.834;10.088;2024-03-02T05:54:06;95550.97;;;10.19;66.93
20971;BME280;10644;48.834;10.088;2024-03-02T05:56:32;95557.09;;;10.16;67.39
20971;BME280;10644;48.834;10.088;2024-03-02T05:58:58;95554.41;;;10.18;66.77
20971;BME280;10644;48.834;10.088;2024-03-02T06:01:45;95561.88;;;10.21;67.60
20971;BME280;10644;48.834;10.088;2024-03-02T06:04:17;95563.75;;;10.19;67.53
20971;BME280;10644;48.834;10.088;2024-03-02T06:06:42;95560.84;;;10.23;67.49
20971;BME280;10644;48.834;10.088;2024-03-02T06:09:08;95565.03;;;10.24;66.91
20971;BME280;10644;48.834;10.088;2024-03-02T06:11:34;95559.44;;;10.19;66.99
20971;BME280;10644;48.834;10.088;2024-03-02T06:14:06;95563.13;;;10.15;67.68
20971;BME280;10644;48.834;10.088;2024-03-02T06:16:32;95570.69;;;9.81;68.44
20971;BME280;10644;48.834;10.088;2024-03-02T06:18:58;95568.81;;;9.83;69.17
20971;BME280;10644;48.834;10.088;2024-03-02T06:21:24;95573.69;;;9.98;68.16
20971;BME280;10644;48.834;10.088;2024-03-02T06:23:51;95571.28;;;9.84;69.03
20971;BME280;10644;48.834;10.088;2024-03-02T06:26:17;95582.50;;;10.07;68.39
20971;BME280;10644;48.834;10.088;2024-03-02T06:28:43;95557.38;;;10.24;67.27
20971;BME280;10644;48.834;10.088;2024-03-02T06:31:08;95567.50;;;10.26;67.07
20971;BME280;10644;48.834;10.088;2024-03-02T06:33:36;95572.78;;;10.35;66.80
20971;BME280;10644;48.834;10.088;2024-03-02T06:36:02;95579.75;;;10.33;66.79
20971;BME280;10644;48.834;10.088;2024-03-02T06:38:28;95580.72;;;10.43;67.28
20971;BME280;10644;48.834;10.088;2024-03-02T06:40:53;95581.69;;;10.53;66.74
20971;BME280;10644;48.834;10.088;2024-03-02T06:43:19;95573.13;;;10.65;66.73
20971;BME280;10644;48.834;10.088;2024-03-02T06:45:48;95575.50;;;10.68;65.91
20971;BME280;10644;48.834;10.088;2024-03-02T06:48:14;95577.78;;;10.60;66.13
20971;BME280;10644;48.834;10.088;2024-03-02T06:50:43;95578.50;;;10.62;66.13
20971;BME280;10644;48.834;10.088;2024-03-02T06:53:09;95580.63;;;10.68;66.38
20971;BME280;10644;48.834;10.088;2024-03-02T06:55:34;95579.69;;;10.69;66.30
20971;BME280;10644;48.834;10.088;2024-03-02T06:58:02;95584.88;;;10.33;67.37
20971;BME280;10644;48.834;10.088;2024-03-02T07:00:27;95587.38;;;10.22;68.45
20971;BME280;10644;48.834;10.088;2024-03-02T07:02:52;95585.91;;;10.31;67.63
20971;BME280;10644;48.834;10.088;2024-03-02T07:05:17;95580.94;;;10.40;67.47
20971;BME280;10644;48.834;10.088;2024-03-02T07:07:43;95577.47;;;10.41;67.75
20971;BME280;10644;48.834;10.088;2024-03-02T07:10:08;95578.66;;;10.48;68.16
20971;BME280;10644;48.834;10.088;2024-03-02T07:12:36;95592.75;;;10.30;68.40
20971;BME280;10644;48.834;10.088;2024-03-02T07:15:04;95588.13;;;10.35;68.01
20971;BME280;10644;48.834;10.088;2024-03-02T07:17:31;95588.69;;;10.51;68.09
20971;BME280;10644;48.834;10.088;2024-03-02T07:20:01;95586.97;;;10.63;67.82
20971;BME280;10644;48.834;10.088;2024-03-02T07:22:26;95590.63;;;10.71;67.31
20971;BME280;10644;48.834;10.088;2024-03-02T07:24:52;95585.44;;;10.60;67.21
20971;BME280;10644;48.834;10.088;2024-03-02T07:27:17;95589.72;;;10.72;66.57
20971;BME280;10644;48.834;10.088;2024-03-02T07:29:43;95589.88;;;10.58;66.74
20971;BME280;10644;48.834;10.088;2024-03-02T07:32:09;95578.16;;;10.67;67.36
20971;BME280;10644;48.834;10.088;2024-03-02T07:34:36;95586.47;;;10.47;67.75
20971;BME280;10644;48.834;10.088;2024-03-02T07:37:01;95592.50;;;10.22;69.21
20971;BME280;10644;48.834;10.088;2024-03-02T07:39:29;95586.72;;;10.31;68.66
20971;BME280;10644;48.834;10.088;2024-03-02T07:41:55;95599.72;;;10.52;67.85
20971;BME280;10644;48.834;10.088;2024-03-02T07:44:23;95600.00;;;10.60;67.22
20971;BME280;10644;48.834;10.088;2024-03-02T07:46:50;95602.06;;;10.78;67.12
20971;BME280;10644;48.834;10.088;2024-03-02T07:49:16;95598.63;;;10.90;66.73
20971;BME280;10644;48.834;10.088;2024-03-02T07:51:42;95604.22;;;10.95;66.82
20971;BME280;10644;48.834;10.088;2024-03-02T07:54:08;95607.19;;;11.13;66.91
20971;BME280;10644;48.834;10.088;2024-03-02T07:56:34;95597.50;;;11.16;66.24
20971;BME280;10644;48.834;10.088;2024-03-02T07:59:03;95602.59;;;11.05;66.79
20971;BME280;10644;48.834;10.088;2024-03-02T08:01:29;95602.91;;;11.24;66.64
20971;BME280;10644;48.834;10.088;2024-03-02T08:03:59;95597.47;;;11.05;67.10
20971;BME280;10644;48.834;10.088;2024-03-02T08:06:25;95598.47;;;11.26;66.71
20971;BME280;10644;48.834;10.088;2024-03-02T08:08:53;95595.69;;;11.29;66.46
20971;BME280;10644;48.834;10.088;2024-03-02T08:11:22;95593.72;;;11.33;66.25
20971;BME280;10644;48.834;10.088;2024-03-02T08:13:48;95585.44;;;11.29;65.99
20971;BME280;10644;48.834;10.088;2024-03-02T08:16:17;95586.13;;;11.31;66.30
20971;BME280;10644;48.834;10.088;2024-03-02T08:18:45;95586.84;;;11.44;66.89
20971;BME280;10644;48.834;10.088;2024-03-02T08:21:11;95583.63;;;11.64;66.30
20971;BME280;10644;48.834;10.088;2024-03-02T08:23:36;95584.09;;;11.80;65.87
20971;BME280;10644;48.834;10.088;2024-03-02T08:26:02;95589.22;;;12.02;65.69
20971;BME280;10644;48.834;10.088;2024-03-02T08:28:28;95577.22;;;11.81;65.60
20971;BME280;10644;48.834;10.088;2024-03-02T08:30:53;95576.94;;;11.51;66.58
20971;BME280;10644;48.834;10.088;2024-03-02T08:33:21;95587.66;;;11.45;66.80
20971;BME280;10644;48.834;10.088;2024-03-02T08:35:49;95587.22;;;11.51;66.59
20971;BME280;10644;48.834;10.088;2024-03-02T08:38:14;95586.19;;;11.64;66.27
20971;BME280;10644;48.834;10.088;2024-03-02T08:40:40;95585.06;;;11.68;65.81
20971;BME280;10644;48.834;10.088;2024-03-02T08:43:08;95589.81;;;11.95;65.63
20971;BME280;10644;48.834;10.088;2024-03-02T08:45:33;95579.88;;;12.12;64.29
20971;BME280;10644;48.834;10.088;2024-03-02T08:48:02;95583.13;;;12.14;63.78
20971;BME280;10644;48.834;10.088;2024-03-02T08:50:29;95586.63;;;12.24;63.64
20971;BME280;10644;48.834;10.088;2024-03-02T08:52:57;95584.06;;;12.24;62.82
20971;BME280;10644;48.834;10.088;2024-03-02T08:55:25;95588.63;;;12.21;63.35
20971;BME280;10644;48.834;10.088;2024-03-02T08:57:58;95582.41;;;12.23;62.74
20971;BME280;10644;48.834;10.088;2024-03-02T09:00:23;95588.94;;;12.27;62.76
20971;BME280;10644;48.834;10.088;2024-03-02T09:02:49;95584.38;;;12.31;62.61
20971;BME280;10644;48.834;10.088;2024-03-02T09:05:15;95585.28;;;12.41;62.51
20971;BME280;10644;48.834;10.088;2024-03-02T09:07:43;95587.22;;;12.59;62.32
20971;BME280;10644;48.834;10.088;2024-03-02T09:10:08;95583.31;;;12.33;62.27
20971;BME280;10644;48.834;10.088;2024-03-02T09:12:34;95584.31;;;12.53;62.25
20971;BME280;10644;48.834;10.088;2024-03-02T09:15:01;95586.69;;;12.76;62.18
20971;BME280;10644;48.834;10.088;2024-03-02T09:17:28;95575.75;;;12.95;61.56
20971;BME280;10644;48.834;10.088;2024-03-02T09:19:53;95591.19;;;12.95;60.67
20971;BME280;10644;48.834;10.088;2024-03-02T09:22:19;95585.13;;;13.16;60.84
20971;BME280;10644;48.834;10.088;2024-03-02T09:24:45;95587.09;;;13.24;59.65
20971;BME280;10644;48.834;10.088;2024-03-02T09:27:10;95586.91;;;13.36;60.00
20971;BME280;10644;48.834;10.088;2024-03-02T09:29:36;95579.41;;;13.53;59.27
20971;BME280;10644;48.834;10.088;2024-03-02T09:32:01;95583.81;;;13.72;59.11
20971;BME280;10644;48.834;10.088;2024-03-02T09:34:29;95587.88;;;13.65;57.65
20971;BME280;10644;48.834;10.088;2024-03-02T09:36:57;95581.84;;;13.85;58.18
20971;BME280;10644;48.834;10.088;2024-03-02T09:39:22;95575.53;;;14.08;58.21
20971;BME280;10644;48.834;10.088;2024-03-02T09:41:48;95575.66;;;14.27;57.39
20971;BME280;10644;48.834;10.088;2024-03-02T09:44:14;95575.66;;;14.46;56.29
20971;BME280;10644;48.834;10.088;2024-03-02T09:46:39;95567.16;;;14.55;54.55
20971;BME280;10644;48.834;10.088;2024-03-02T09:49:10;95564.28;;;14.58;55.75
20971;BME280;10644;48.834;10.088;2024-03-02T09:51:37;95554.78;;;14.87;55.50
20971;BME280;10644;48.834;10.088;2024-03-02T09:54:03;95546.09;;;15.07;55.05
20971;BME280;10644;48.834;10.088;2024-03-02T09:56:29;95555.59;;;15.35;55.55
20971;BME280;10644;48.834;10.088;2024-03-02T09:58:56;95548.88;;;15.51;53.98
20971;BME280;10644;48.834;10.088;2024-03-02T10:01:21;95551.97;;;15.64;53.91
20971;BME280;10644;48.834;10.088;2024-03-02T10:03:47;95553.13;;;15.79;53.68
20971;BME280;10644;48.834;10.088;2024-03-02T10:06:24;95553.91;;;15.53;52.54
20971;BME280;10644;48.834;10.088;2024-03-02T10:08:50;95548.13;;;15.68;52.19
20971;BME280;10644;48.834;10.088;2024-03-02T10:11:30;95551.91;;;15.83;52.68
20971;BME280;10644;48.834;10.088;2024-03-02T10:14:16;95546.63;;;16.02;50.98
20971;BME280;10644;48.834;10.088;2024-03-02T10:16:44;95549.06;;;16.04;51.05
20971;BME280;10644;48.834;10.088;2024-03-02T10:21:44;95536.94;;;16.14;50.65
20971;BME280;10644;48.834;10.088;2024-03-02T10:24:09;95538.94;;;16.20;50.65
20971;BME280;10644;48.834;10.088;2024-03-02T10:26:35;95547.34;;;16.22;50.51
20971;BME280;10644;48.834;10.088;2024-03-02T10:29:00;95535.69;;;16.18;49.31
20971;BME280;10644;48.834;10.088;2024-03-02T10:31:26;95539.97;;;16.27;50.16
20971;BME280;10644;48.834;10.088;2024-03-02T10:33:54;95545.44;;;16.24;49.46
20971;BME280;10644;48.834;10.088;2024-03-02T10:36:20;95537.84;;;16.22;50.55
20971;BME280;10644;48.834;10.088;2024-03-02T10:38:48;95537.31;;;16.19;49.15
20971;BME280;10644;48.834;10.088;2024-03-02T10:41:23;95543.97;;;16.21;49.56
20971;BME280;10644;48.834;10.088;2024-03-02T10:43:52;95531.44;;;15.99;49.05
20971;BME280;10644;48.834;10.088;2024-03-02T10:46:20;95532.53;;;15.97;48.67
20971;BME280;10644;48.834;10.088;2024-03-02T10:48:47;95528.53;;;15.85;48.94
20971;BME280;10644;48.834;10.088;2024-03-02T10:51:14;95535.19;;;16.05;50.00
20971;BME280;10644;48.834;10.088;2024-03-02T10:53:40;95534.41;;;16.22;49.53
20971;BME280;10644;48.834;10.088;2024-03-02T10:56:07;95525.78;;;16.40;49.58
20971;BME280;10644;48.834;10.088;2024-03-02T10:58:35;95515.66;;;16.47;48.68
20971;BME280;10644;48.834;10.088;2024-03-02T11:01:03;95515.06;;;16.53;48.80
20971;BME280;10644;48.834;10.088;2024-03-02T11:03:32;95517.22;;;16.40;49.44
20971;BME280;10644;48.834;10.088;2024-03-02T11:06:03;95518.25;;;16.47;49.32
20971;BME280;10644;48.834;10.088;2024-03-02T11:08:33;95513.69;;;16.41;48.48
20971;BME280;10644;48.834;10.088;2024-03-02T11:11:13;95514.63;;;16.40;49.29
20971;BME280;10644;48.834;10.088;2024-03-02T11:13:41;95505.69;;;16.52;48.72
20971;BME280;10644;48.834;10.088;2024-03-02T11:16:35;95498.47;;;16.55;49.72
20971;BME280;10644;48.834;10.088;2024-03-02T11:19:06;95494.63;;;16.59;48.90
20971;BME280;10644;48.834;10.088;2024-03-02T11:21:36;95490.84;;;16.54;48.45
20971;BME280;10644;48.834;10.088;2024-03-02T11:26:47;95492.09;;;16.50;47.56
20971;BME280;10644;48.834;10.088;2024-03-02T11:32:03;95482.63;;;15.79;48.06
20971;BME280;10644;48.834;10.088;2024-03-02T11:34:33;95474.16;;;15.77;49.04
20971;BME280;10644;48.834;10.088;2024-03-02T11:36:59;95472.91;;;16.08;46.98
20971;BME280;10644;48.834;10.088;2024-03-02T11:39:28;95470.81;;;15.94;48.54
20971;BME280;10644;48.834;10.088;2024-03-02T11:41:57;95460.59;;;15.75;47.58
20971;BME280;10644;48.834;10.088;2024-03-02T11:44:28;95462.41;;;15.92;47.97
20971;BME280;10644;48.834;10.088;2024-03-02T11:47:01;95467.91;;;16.24;47.87
20971;BME280;10644;48.834;10.088;2024-03-02T11:52:05;95450.25;;;16.89;46.60
20971;BME280;10644;48.834;10.088;2024-03-02T11:54:32;95443.75;;;17.11;46.95
20971;BME280;10644;48.834;10.088;2024-03-02T11:57:04;95444.94;;;17.50;47.22
20971;BME280;10644;48.834;10.088;2024-03-02T11:59:29;95443.13;;;17.84;45.36
20971;BME280;10644;48.834;10.088;2024-03-02T12:01:55;95440.78;;;18.06;45.54
20971;BME280;10644;48.834;10.088;2024-03-02T12:04:23;95427.34;;;18.19;45.25
20971;BME280;10644;48.834;10.088;2024-03-02T12:06:57;95429.63;;;18.30;44.19
20971;BME280;10644;48.834;10.088;2024-03-02T12:09:25;95422.22;;;18.35;44.35
20971;BME280;10644;48.834;10.088;2024-03-02T12:12:09;95407.50;;;18.51;43.67
20971;BME280;10644;48.834;10.088;2024-03-02T12:14:37;95410.56;;;18.39;43.76
20971;BME280;10644;48.834;10.088;2024-03-02T12:17:05;95404.00;;;18.11;44.04
20971;BME280;10644;48.834;10.088;2024-03-02T12:19:32;95408.97;;;17.88;43.84
20971;BME280;10644;48.834;10.088;2024-03-02T12:22:00;95409.16;;;17.87;44.21
20971;BME280;10644;48.834;10.088;2024-03-02T12:24:29;95402.78;;;18.39;43.80
20971;BME280;10644;48.834;10.088;2024-03-02T12:26:55;95401.81;;;18.72;42.55
20971;BME280;10644;48.834;10.088;2024-03-02T12:29:21;95398.09;;;18.34;42.08
20971;BME280;10644;48.834;10.088;2024-03-02T12:31:53;95392.88;;;18.42;42.85
20971;BME280;10644;48.834;10.088;2024-03-02T12:34:21;95398.19;;;18.17;42.13
20971;BME280;10644;48.834;10.088;2024-03-02T12:36:47;95398.50;;;18.30;41.97
20971;BME280;10644;48.834;10.088;2024-03-02T12:39:17;95399.84;;;18.34;41.24
20971;BME280;10644;48.834;10.088;2024-03-02T12:41:43;95390.78;;;18.54;41.61
20971;BME280;10644;48.834;10.088;2024-03-02T12:44:09;95387.81;;;19.05;40.38
20971;BME280;10644;48.834;10.088;2024-03-02T12:46:34;95377.53;;;19.35;39.80
20971;BME280;10644;48.834;10.088;2024-03-02T12:49:11;95385.41;;;19.50;40.66
20971;BME280;10644;48.834;10.088;2024-03-02T12:51:40;95375.91;;;19.65;38.45
20971;BME280;10644;48.834;10.088;2024-03-02T12:54:09;95377.25;;;19.61;38.21
20971;BME280;10644;48.834;10.088;2024-03-02T12:56:36;95373.13;;;19.97;37.82
20971;BME280;10644;48.834;10.088;2024-03-02T12:59:03;95374.84;;;20.12;38.59